Change the Weather History Date:

Saturday, December 1, 2012

  Actual Average Record
Temperature  
Mean Temperature 52 °F -  
Max Temperature 57 °F 53 °F 62 °F (2013)
Min Temperature 48 °F 31 °F 28 °F (2011)
Degree Days  
Heating Degree Days 12    
Growing Degree Days 2 (Base 50)    
Moisture  
Dew Point 48 °F    
Average Humidity 92    
Maximum Humidity 100    
Minimum Humidity 67    
Precipitation  
Precipitation 0.10 in - - ()
Sea Level Pressure  
Sea Level Pressure 30.13 in    
Wind  
Wind Speed 15 mph (NW)    
Max Wind Speed 21 mph    
Max Gust Speed 28 mph    
Visibility 7 miles    
Events Fog , Rain    
Averages and records for this station are not official NWS values.
T = Trace of Precipitation, MM = Missing Value Source: NWS Daily Summary

Daily Weather History Graph

Daily Weather History Graph

Search for Another Location

Airport or City:

Trip Planner

Search our weather history database for the weather conditions in past years. The results will help you decide how hot, cold, wet, or windy it might be!

Date:

Astronomy

Dec. 01, 2012 Rise Set
Actual Time 6:44 AM PST 4:41 PM PST
Civil Twilight 6:16 AM PST 5:09 PM PST
Nautical Twilight 5:45 AM PST 5:40 PM PST
Astronomical Twilight 5:14 AM PST 6:11 PM PST
Moon 7:34 PM PST (12/1) 9:01 AM PST (12/1)
Length of Visible Light 10h 53m
Length of Day
9h 57m
Waning Gibbous, 91% of the Moon is Illuminated
Dec 1
Waning Gibbous
Dec 6
Last Quarter
Dec 13
New
Dec 19
First Quarter
Dec 28
Full

Hourly Weather History & Observations

Time (PST) Temp. Dew Point Humidity Pressure Visibility Wind Dir Wind Speed Gust Speed Precip Events Conditions
12:15 AM 48.2 °F 44.6 °F 87% 30.15 in 10.0 mi WNW 12.7 mph - N/A   Overcast
12:35 AM 48.2 °F 46.4 °F 93% 30.15 in 9.0 mi WNW 15.0 mph - N/A   Overcast
12:55 AM 48.2 °F 46.4 °F 93% 30.14 in 10.0 mi WNW 13.8 mph - N/A   Overcast
1:15 AM 48.2 °F 46.4 °F 93% 30.15 in 10.0 mi WNW 15.0 mph - N/A   Overcast
2:15 AM 48.2 °F 46.4 °F 93% 30.15 in 10.0 mi WNW 12.7 mph - N/A   Overcast
2:35 AM 48.2 °F 46.4 °F 93% 30.14 in 10.0 mi NW 15.0 mph - N/A   Overcast
2:55 AM 48.2 °F 46.4 °F 93% 30.14 in 10.0 mi NW 16.1 mph 21.9 mph N/A   Overcast
3:15 AM 48.2 °F 48.2 °F 100% 30.14 in 10.0 mi WNW 13.8 mph 20.7 mph N/A   Overcast
3:35 AM 48.2 °F 48.2 °F 100% 30.13 in 10.0 mi NW 11.5 mph - N/A   Overcast
4:15 AM 48.2 °F 48.2 °F 100% 30.12 in 10.0 mi NW 15.0 mph 19.6 mph N/A   Overcast
4:35 AM 48.2 °F 48.2 °F 100% 30.13 in 10.0 mi NW 17.3 mph 20.7 mph N/A   Overcast
4:55 AM 48.2 °F 48.2 °F 100% 30.13 in 9.0 mi NW 17.3 mph 23.0 mph N/A   Overcast
5:15 AM 48.2 °F 48.2 °F 100% 30.14 in 6.0 mi NW 17.3 mph 23.0 mph N/A   Overcast
5:35 AM 48.2 °F 48.2 °F 100% 30.14 in 2.5 mi NW 18.4 mph 24.2 mph N/A   Overcast
5:55 AM 48.2 °F 48.2 °F 100% 30.15 in 2.5 mi NW 16.1 mph 25.3 mph N/A   Overcast
6:15 AM 48.2 °F 48.2 °F 100% 30.15 in 1.2 mi NW 19.6 mph 25.3 mph N/A   Overcast
6:35 AM 48.2 °F 48.2 °F 100% 30.15 in 1.8 mi NW 16.1 mph 27.6 mph N/A   Overcast
6:55 AM 48.2 °F 48.2 °F 100% 30.15 in 0.8 mi NW 17.3 mph - N/A   Overcast
7:15 AM 48.2 °F 48.2 °F 100% 30.16 in 0.5 mi WNW 18.4 mph 24.2 mph N/A Fog Fog
7:35 AM 48.2 °F 48.2 °F 100% 30.16 in 4.0 mi WNW 20.7 mph 26.5 mph N/A   Overcast
7:55 AM 48.2 °F 48.2 °F 100% 30.17 in 8.0 mi NW 18.4 mph 23.0 mph N/A   Overcast
8:15 AM 48.2 °F 48.2 °F 100% 30.17 in 8.0 mi WNW 20.7 mph - N/A   Overcast
8:35 AM 50.0 °F 50.0 °F 100% 30.17 in 10.0 mi WNW 16.1 mph 23.0 mph N/A   Mostly Cloudy
8:55 AM 50.0 °F 50.0 °F 100% 30.18 in 10.0 mi NW 16.1 mph - N/A   Overcast
9:15 AM 50.0 °F 48.2 °F 94% 30.18 in 10.0 mi NW 13.8 mph - N/A   Overcast
9:35 AM 51.8 °F 48.2 °F 88% 30.18 in 10.0 mi NW 13.8 mph 20.7 mph N/A   Overcast
9:55 AM 51.8 °F 46.4 °F 82% 30.19 in 10.0 mi NW 18.4 mph - N/A   Overcast
10:15 AM 53.6 °F 46.4 °F 77% 30.18 in 10.0 mi NW 16.1 mph - N/A   Mostly Cloudy
10:35 AM 55.4 °F 46.4 °F 72% 30.18 in 10.0 mi NW 16.1 mph 20.7 mph N/A   Mostly Cloudy
10:55 AM 55.4 °F 46.4 °F 72% 30.18 in 10.0 mi NW 17.3 mph 20.7 mph N/A   Mostly Cloudy
11:15 AM 55.4 °F 46.4 °F 72% 30.17 in 10.0 mi NW 17.3 mph - N/A   Mostly Cloudy
11:35 AM 55.4 °F 46.4 °F 72% 30.16 in 10.0 mi NW 16.1 mph 23.0 mph N/A   Overcast
12:15 PM 55.4 °F 46.4 °F 72% 30.14 in 10.0 mi NW 13.8 mph 21.9 mph N/A   Mostly Cloudy
12:35 PM 55.4 °F 46.4 °F 72% 30.13 in 10.0 mi NW 16.1 mph 21.9 mph N/A   Mostly Cloudy
12:55 PM 57.2 °F 46.4 °F 67% 30.12 in 10.0 mi NW 19.6 mph 23.0 mph N/A   Mostly Cloudy
1:15 PM 57.2 °F 46.4 °F 67% 30.12 in 10.0 mi NW 20.7 mph 26.5 mph N/A   Mostly Cloudy
1:35 PM 55.4 °F 46.4 °F 72% 30.11 in 10.0 mi NW 17.3 mph 24.2 mph N/A   Mostly Cloudy
1:55 PM 55.4 °F 46.4 °F 72% 30.11 in 10.0 mi NW 19.6 mph 23.0 mph N/A   Mostly Cloudy
2:15 PM 55.4 °F 46.4 °F 72% 30.10 in 10.0 mi NW 17.3 mph 20.7 mph N/A   Overcast
2:35 PM 55.4 °F 46.4 °F 72% 30.10 in 10.0 mi NW 15.0 mph - N/A   Overcast
2:55 PM 55.4 °F 46.4 °F 72% 30.10 in 4.0 mi NW 17.3 mph - N/A Rain Light Rain
3:15 PM 53.6 °F 48.2 °F 82% 30.10 in 5.0 mi NW 18.4 mph 21.9 mph N/A Rain Light Rain
3:55 PM 50.0 °F 50.0 °F 100% 30.10 in 3.0 mi NW 13.8 mph - N/A Rain Light Rain
4:15 PM 50.0 °F 50.0 °F 100% 30.10 in 1.8 mi NW 16.1 mph - N/A Rain Light Rain
4:35 PM 50.0 °F 50.0 °F 100% 30.11 in 0.5 mi NW 15.0 mph - 0.01 in Rain Light Rain
4:55 PM 50.0 °F 50.0 °F 100% 30.11 in 0.5 mi NW 12.7 mph - 0.03 in Rain Light Rain
5:15 PM 50.0 °F 50.0 °F 100% 30.11 in 7.0 mi NW 10.4 mph - N/A   Overcast
5:35 PM 50.0 °F 50.0 °F 100% 30.10 in 1.8 mi WNW 8.1 mph - N/A Rain Light Rain
5:55 PM 50.0 °F 50.0 °F 100% 30.10 in 2.0 mi WNW 9.2 mph - 0.01 in Rain Light Rain
6:15 PM 50.0 °F 50.0 °F 100% 30.10 in 4.0 mi WNW 10.4 mph - N/A   Overcast
6:35 PM 50.0 °F 50.0 °F 100% 30.10 in 0.2 mi WNW 9.2 mph - N/A Rain Light Rain
6:55 PM 50.0 °F 50.0 °F 100% 30.11 in 0.5 mi WNW 9.2 mph - 0.02 in Rain Light Rain
7:15 PM 50.0 °F 50.0 °F 100% 30.11 in 1.0 mi NW 9.2 mph - 0.01 in Rain Light Rain
7:35 PM 50.0 °F 50.0 °F 100% 30.11 in 0.5 mi WNW 8.1 mph - 0.01 in Rain Light Rain
7:55 PM 50.0 °F 50.0 °F 100% 30.11 in 1.5 mi WNW 8.1 mph - 0.01 in Rain Light Rain
8:15 PM 50.0 °F 50.0 °F 100% 30.12 in 2.0 mi WNW 16.1 mph 20.7 mph 0.01 in Rain Light Rain
8:35 PM 50.0 °F 50.0 °F 100% 30.12 in 2.5 mi NW 19.6 mph 24.2 mph 0.03 in Rain Light Rain
8:55 PM 50.0 °F 50.0 °F 100% 30.12 in 10.0 mi NW 16.1 mph 23.0 mph 0.03 in   Overcast
9:15 PM 48.2 °F 48.2 °F 100% 30.13 in 10.0 mi NW 16.1 mph 20.7 mph N/A   Overcast
9:35 PM 48.2 °F 48.2 °F 100% 30.12 in 10.0 mi WNW 12.7 mph - N/A   Scattered Clouds
9:55 PM 48.2 °F 48.2 °F 100% 30.13 in 10.0 mi WNW 11.5 mph - N/A   Clear
10:15 PM 48.2 °F 48.2 °F 100% 30.14 in 10.0 mi WNW 16.1 mph - N/A   Clear
10:35 PM 48.2 °F 46.4 °F 93% 30.14 in 10.0 mi West 12.7 mph - N/A   Scattered Clouds
10:55 PM 48.2 °F 46.4 °F 93% 30.14 in 10.0 mi NW 11.5 mph - N/A   Mostly Cloudy
11:15 PM 48.2 °F 46.4 °F 93% 30.13 in 10.0 mi NW 10.4 mph - N/A   Overcast
11:35 PM 48.2 °F 46.4 °F 93% 30.13 in 10.0 mi NW 11.5 mph - N/A   Overcast
11:55 PM 48.2 °F 46.4 °F 93% 30.12 in 10.0 mi NW 11.5 mph - N/A   Overcast